createdAt,value
2017-11-28T00:00:49.921Z,55.00
2017-11-28T00:03:17.337Z,55.50
2017-11-28T00:05:44.787Z,56.20
2017-11-28T00:08:12.209Z,56.10
2017-11-28T00:10:39.688Z,56.50
2017-11-28T00:13:07.113Z,56.80
2017-11-28T00:15:34.566Z,56.60
2017-11-28T00:18:02.001Z,57.20
2017-11-28T00:20:29.465Z,56.80
2017-11-28T00:22:57.916Z,57.50
2017-11-28T00:25:25.362Z,57.30
2017-11-28T00:27:52.827Z,57.70
2017-11-28T00:30:21.752Z,58.40
2017-11-28T00:32:49.197Z,58.40
2017-11-28T00:35:16.633Z,59.20
2017-11-28T00:37:44.079Z,59.80
2017-11-28T00:40:11.493Z,59.80
2017-11-28T00:42:39.728Z,60.10
2017-11-28T00:45:07.170Z,60.00
2017-11-28T00:47:34.596Z,60.00
2017-11-28T00:50:02.050Z,60.40
2017-11-28T00:52:29.482Z,61.10
2017-11-28T00:54:56.920Z,62.20
2017-11-28T00:57:24.360Z,61.70
2017-11-28T00:59:51.828Z,61.50
2017-11-28T01:02:19.265Z,61.70
2017-11-28T01:04:46.719Z,62.00
2017-11-28T01:07:14.161Z,61.40
2017-11-28T01:09:41.580Z,61.70
2017-11-28T01:12:09.020Z,60.10
2017-11-28T01:14:36.448Z,60.60
2017-11-28T01:17:04.024Z,60.20
2017-11-28T01:19:31.461Z,59.60
2017-11-28T01:21:58.915Z,59.40
2017-11-28T01:24:26.470Z,59.60
2017-11-28T01:26:53.893Z,59.30
2017-11-28T01:29:21.317Z,59.00
2017-11-28T01:31:48.773Z,59.00
2017-11-28T01:34:16.272Z,58.60
2017-11-28T01:36:43.760Z,58.70
2017-11-28T01:39:11.196Z,58.40
2017-11-28T01:41:38.621Z,58.60
2017-11-28T01:44:06.077Z,58.90
2017-11-28T01:46:33.524Z,57.60
2017-11-28T01:49:00.977Z,57.60
2017-11-28T01:51:28.465Z,57.10
2017-11-28T01:53:56.662Z,57.60
2017-11-28T01:56:24.131Z,57.60
2017-11-28T01:58:51.562Z,57.30
2017-11-28T02:01:19.094Z,57.50
2017-11-28T02:03:46.518Z,56.80
2017-11-28T02:06:14.002Z,57.00
2017-11-28T02:08:41.441Z,56.50
2017-11-28T02:11:08.877Z,56.20
2017-11-28T02:13:36.315Z,56.40
2017-11-28T02:16:03.742Z,56.30
2017-11-28T02:18:31.177Z,55.60
2017-11-28T02:20:58.623Z,55.90
2017-11-28T02:23:26.118Z,56.10
2017-11-28T02:25:54.339Z,55.90
2017-11-28T02:28:23.010Z,55.90
2017-11-28T02:30:50.436Z,55.80
2017-11-28T02:33:18.440Z,55.40
2017-11-28T02:35:45.865Z,54.90
2017-11-28T02:38:13.301Z,55.00
2017-11-28T02:40:52.557Z,55.10
2017-11-28T02:43:20.789Z,54.50
2017-11-28T02:45:48.229Z,54.50
2017-11-28T02:48:15.654Z,54.50
2017-11-28T02:50:43.091Z,54.20
2017-11-28T02:53:11.022Z,54.70
2017-11-28T02:55:40.112Z,54.20
2017-11-28T02:58:12.366Z,54.10
2017-11-28T03:00:40.701Z,54.00
2017-11-28T03:03:08.937Z,53.60
2017-11-28T03:05:36.381Z,54.30
2017-11-28T03:08:03.802Z,53.60
2017-11-28T03:13:33.832Z,53.60
2017-11-28T03:16:16.129Z,53.60
2017-11-28T03:18:44.476Z,53.40
2017-11-28T03:21:14.589Z,53.20
2017-11-28T03:24:09.556Z,53.20
2017-11-28T03:26:36.985Z,53.10
2017-11-28T03:29:30.052Z,53.00
2017-11-28T03:31:57.493Z,53.00
2017-11-28T03:34:24.920Z,52.90
2017-11-28T03:36:52.374Z,53.00
2017-11-28T03:39:19.830Z,52.70
2017-11-28T03:41:47.259Z,52.70
2017-11-28T03:44:26.370Z,52.60
2017-11-28T03:46:53.802Z,52.40
2017-11-28T03:49:21.256Z,52.40
2017-11-28T03:51:48.685Z,52.20
2017-11-28T03:54:16.118Z,51.70
2017-11-28T03:56:43.629Z,52.00
2017-11-28T03:59:11.965Z,51.90
2017-11-28T04:01:39.398Z,51.80
2017-11-28T04:04:06.834Z,51.90
2017-11-28T04:06:34.266Z,51.60
2017-11-28T04:09:01.728Z,51.70
2017-11-28T04:11:29.168Z,51.60
2017-11-28T04:13:56.614Z,51.50
2017-11-28T04:16:24.042Z,51.60
2017-11-28T04:18:51.478Z,51.50
2017-11-28T04:21:18.933Z,51.70
2017-11-28T04:23:46.474Z,51.50
2017-11-28T04:26:13.912Z,51.50
2017-11-28T04:28:41.353Z,51.20
2017-11-28T04:31:08.825Z,51.20
2017-11-28T04:33:36.250Z,50.80
2017-11-28T04:36:03.798Z,51.10
2017-11-28T04:38:31.237Z,50.90
2017-11-28T04:40:58.673Z,50.60
2017-11-28T04:43:26.121Z,50.00
2017-11-28T04:45:54.326Z,50.10
2017-11-28T04:48:22.551Z,50.20
2017-11-28T04:50:49.982Z,50.40
2017-11-28T04:53:17.454Z,50.10
2017-11-28T04:55:45.699Z,50.00
2017-11-28T04:58:13.130Z,50.00
2017-11-28T05:00:40.561Z,50.10
2017-11-28T05:03:07.993Z,50.60
2017-11-28T05:05:35.453Z,50.10
2017-11-28T05:08:03.269Z,50.10
2017-11-28T05:10:30.714Z,50.40
2017-11-28T05:12:58.149Z,50.50
2017-11-28T05:15:25.646Z,50.40
2017-11-28T05:17:53.163Z,50.70
2017-11-28T05:20:20.631Z,50.90
2017-11-28T05:22:48.560Z,51.20
2017-11-28T05:25:15.986Z,50.90
2017-11-28T05:27:43.420Z,50.90
2017-11-28T05:30:10.859Z,51.10
2017-11-28T05:32:38.323Z,51.50
2017-11-28T05:35:06.515Z,51.60
2017-11-28T05:37:33.954Z,51.30
2017-11-28T05:40:01.418Z,51.70
2017-11-28T05:42:29.740Z,51.70
2017-11-28T05:44:57.171Z,51.60
2017-11-28T05:47:24.651Z,51.60
2017-11-28T05:49:52.097Z,52.20
2017-11-28T05:52:19.521Z,52.50
2017-11-28T05:54:46.975Z,52.70
2017-11-28T05:57:14.424Z,52.60
2017-11-28T05:59:42.631Z,52.80
2017-11-28T06:02:10.129Z,52.90
2017-11-28T06:04:37.576Z,52.80
2017-11-28T06:07:05.107Z,52.90
2017-11-28T06:09:32.566Z,52.70
2017-11-28T06:12:00.012Z,52.60
2017-11-28T06:14:27.546Z,52.60
2017-11-28T06:16:54.974Z,52.40
2017-11-28T06:19:22.420Z,51.90
2017-11-28T06:21:50.661Z,51.70
2017-11-28T06:24:18.202Z,51.70
2017-11-28T06:26:45.628Z,52.30
2017-11-28T06:29:13.259Z,52.40
2017-11-28T06:31:40.691Z,52.10
2017-11-28T06:34:08.907Z,52.00
2017-11-28T06:36:36.317Z,52.00
2017-11-28T06:39:03.810Z,52.20
2017-11-28T06:41:31.247Z,51.90
2017-11-28T06:43:58.701Z,51.90
2017-11-28T06:46:27.561Z,52.20
2017-11-28T06:48:55.000Z,52.20
2017-11-28T06:51:22.576Z,52.30
2017-11-28T06:53:50.106Z,52.20
2017-11-28T06:56:17.553Z,52.30
2017-11-28T06:58:44.997Z,52.40
2017-11-28T07:01:12.530Z,52.40
2017-11-28T07:03:39.974Z,52.20
2017-11-28T07:06:07.401Z,52.30
2017-11-28T07:08:34.845Z,52.20
2017-11-28T07:11:02.275Z,52.60
2017-11-28T07:13:29.769Z,53.20
2017-11-28T07:15:58.011Z,52.30
2017-11-28T07:18:25.434Z,52.40
2017-11-28T07:20:52.883Z,52.50
2017-11-28T07:23:20.338Z,52.50
2017-11-28T07:25:47.766Z,51.40
2017-11-28T07:28:15.217Z,51.50
2017-11-28T07:30:42.761Z,51.20
2017-11-28T07:33:10.199Z,50.90
2017-11-28T07:35:37.634Z,51.60
2017-11-28T07:38:05.063Z,51.50
2017-11-28T07:40:32.539Z,51.50
2017-11-28T07:42:59.977Z,51.10
2017-11-28T07:45:27.509Z,50.80
2017-11-28T07:47:54.970Z,50.70
2017-11-28T07:50:22.430Z,50.40
2017-11-28T07:52:49.866Z,50.40
2017-11-28T07:55:17.337Z,50.60
2017-11-28T07:57:44.776Z,50.40
2017-11-28T08:00:12.233Z,50.50
2017-11-28T08:02:39.662Z,50.50
2017-11-28T08:05:07.213Z,50.40
2017-11-28T08:07:34.835Z,50.60
2017-11-28T08:10:02.289Z,50.50
2017-11-28T08:12:29.745Z,50.70
2017-11-28T08:14:57.179Z,50.60
2017-11-28T08:17:24.619Z,50.20
2017-11-28T08:19:53.031Z,50.40
2017-11-28T08:22:21.213Z,50.40
2017-11-28T08:24:48.643Z,50.40
2017-11-28T08:27:16.078Z,50.90
2017-11-28T08:29:43.506Z,50.10
2017-11-28T08:32:11.706Z,50.30
2017-11-28T08:34:39.138Z,50.40
2017-11-28T08:37:06.577Z,50.20
2017-11-28T08:39:34.001Z,50.20
2017-11-28T08:42:02.199Z,50.30
2017-11-28T08:44:29.637Z,50.30
2017-11-28T08:46:57.087Z,50.40
2017-11-28T08:49:24.538Z,51.60
2017-11-28T08:51:51.985Z,50.30
2017-11-28T08:54:20.928Z,50.20
2017-11-28T08:56:48.385Z,50.10
2017-11-28T08:59:15.823Z,50.10
2017-11-28T09:01:43.265Z,50.10
2017-11-28T09:04:10.701Z,50.20
2017-11-28T09:06:38.185Z,50.30
2017-11-28T09:09:06.489Z,50.30
2017-11-28T09:11:33.919Z,50.30
2017-11-28T09:14:02.152Z,51.00
2017-11-28T09:16:29.661Z,51.00
2017-11-28T09:18:57.102Z,51.60
2017-11-28T09:21:24.527Z,52.60
2017-11-28T09:23:51.967Z,52.70
2017-11-28T09:26:20.297Z,53.10
2017-11-28T09:28:48.541Z,54.40
2017-11-28T09:31:15.966Z,54.50
2017-11-28T09:33:43.417Z,55.30
2017-11-28T09:36:10.846Z,56.10
2017-11-28T09:38:38.313Z,57.30
2017-11-28T09:41:05.749Z,57.10
2017-11-28T09:43:33.302Z,57.10
2017-11-28T09:46:00.735Z,56.60
2017-11-28T09:48:28.194Z,56.80
2017-11-28T09:50:57.252Z,58.10
2017-11-28T09:53:25.467Z,58.70
2017-11-28T09:55:52.940Z,58.70
2017-11-28T09:58:20.403Z,59.40
2017-11-28T10:00:48.654Z,60.20
2017-11-28T10:03:16.181Z,60.30
2017-11-28T10:05:43.631Z,60.90
2017-11-28T10:08:11.085Z,60.30
2017-11-28T10:10:39.339Z,61.80
2017-11-28T10:13:06.959Z,60.90
2017-11-28T10:15:34.423Z,61.50
2017-11-28T10:18:01.861Z,61.80
2017-11-28T10:20:29.309Z,61.90
2017-11-28T10:22:56.744Z,63.00
2017-11-28T10:25:24.182Z,63.70
2017-11-28T10:27:51.615Z,63.70
2017-11-28T10:30:19.073Z,63.80
2017-11-28T10:32:46.522Z,65.20
2017-11-28T10:35:13.958Z,63.80
2017-11-28T10:37:41.387Z,63.10
2017-11-28T10:40:08.833Z,62.30
2017-11-28T10:42:36.262Z,63.20
2017-11-28T10:45:03.697Z,63.10
2017-11-28T10:47:31.219Z,63.90
2017-11-28T10:49:58.729Z,63.50
2017-11-28T10:52:26.954Z,62.70
2017-11-28T10:54:54.420Z,62.70
2017-11-28T10:57:22.628Z,64.60
2017-11-28T10:59:50.097Z,64.60
2017-11-28T11:02:18.473Z,63.20
2017-11-28T11:04:45.924Z,64.00
2017-11-28T11:07:13.445Z,62.80
2017-11-28T11:09:40.970Z,63.60
2017-11-28T11:12:08.412Z,63.70
2017-11-28T11:14:35.859Z,64.00
2017-11-28T11:17:03.330Z,64.90
2017-11-28T11:19:30.797Z,64.30
2017-11-28T11:21:59.054Z,64.40
2017-11-28T11:24:27.984Z,64.50
2017-11-28T11:26:55.425Z,64.50
2017-11-28T11:29:22.857Z,65.00
2017-11-28T11:31:50.443Z,64.60
2017-11-28T11:34:17.885Z,66.40
2017-11-28T11:36:45.324Z,66.80
2017-11-28T11:39:12.749Z,66.90
2017-11-28T11:41:40.206Z,67.50
2017-11-28T11:44:07.698Z,68.70
2017-11-28T11:46:35.127Z,67.50
2017-11-28T11:49:03.323Z,67.30
2017-11-28T11:51:31.157Z,67.30
2017-11-28T11:53:58.586Z,68.30
2017-11-28T11:56:26.773Z,69.00
2017-11-28T11:58:54.213Z,69.00
2017-11-28T12:01:21.706Z,68.90
2017-11-28T12:03:49.146Z,68.70
2017-11-28T12:06:16.581Z,67.90
2017-11-28T12:08:44.014Z,68.60
2017-11-28T12:11:11.474Z,68.80
2017-11-28T12:13:38.980Z,69.20
2017-11-28T12:16:06.477Z,69.80
2017-11-28T12:18:33.954Z,70.00
2017-11-28T12:21:01.391Z,70.10
2017-11-28T12:23:28.822Z,70.20
2017-11-28T12:25:56.253Z,70.70
2017-11-28T12:28:23.775Z,70.40
2017-11-28T12:30:51.294Z,71.00
2017-11-28T12:33:18.796Z,71.20
2017-11-28T12:35:46.264Z,69.90
2017-11-28T12:38:13.702Z,70.60
2017-11-28T12:40:41.123Z,70.60
2017-11-28T12:43:08.751Z,69.90
2017-11-28T12:45:36.277Z,70.70
2017-11-28T12:48:05.269Z,70.90
2017-11-28T12:50:32.741Z,70.90
2017-11-28T12:53:00.318Z,71.80
2017-11-28T12:55:27.759Z,71.80
2017-11-28T12:57:55.518Z,71.80
2017-11-28T13:00:23.042Z,70.90
2017-11-28T13:02:50.581Z,71.20
2017-11-28T13:05:18.018Z,70.20
2017-11-28T13:07:45.453Z,70.40
2017-11-28T13:10:12.902Z,69.80
2017-11-28T13:12:40.573Z,70.10
2017-11-28T13:15:08.777Z,69.80
2017-11-28T13:17:36.253Z,69.80
2017-11-28T13:20:03.791Z,69.00
2017-11-28T13:22:31.234Z,70.20
2017-11-28T13:24:58.706Z,69.80
2017-11-28T13:27:26.965Z,69.90
2017-11-28T13:29:54.398Z,69.30
2017-11-28T13:32:21.886Z,70.10
2017-11-28T13:34:49.378Z,70.00
2017-11-28T13:37:16.825Z,68.60
2017-11-28T13:39:45.036Z,69.60
2017-11-28T13:42:12.628Z,69.60
2017-11-28T13:44:40.106Z,70.20
2017-11-28T13:47:08.298Z,70.50
2017-11-28T13:49:35.734Z,70.40
2017-11-28T13:52:03.180Z,71.30
2017-11-28T13:54:31.587Z,70.60
2017-11-28T13:56:59.799Z,71.40
2017-11-28T13:59:27.252Z,71.40
2017-11-28T14:01:54.773Z,71.60
2017-11-28T14:04:22.226Z,71.20
2017-11-28T14:06:49.660Z,70.80
2017-11-28T14:09:17.119Z,69.10
2017-11-28T14:11:44.617Z,69.80
2017-11-28T14:14:12.821Z,69.20
2017-11-28T14:19:13.171Z,68.80
2017-11-28T14:24:57.129Z,69.00
2017-11-28T14:27:27.146Z,69.50
2017-11-28T14:30:10.222Z,70.60
2017-11-28T14:32:43.506Z,70.70
2017-11-28T14:35:12.570Z,70.60
2017-11-28T14:37:40.017Z,70.40
2017-11-28T14:40:07.466Z,71.00
2017-11-28T14:42:35.861Z,69.70
2017-11-28T14:48:05.044Z,69.30
2017-11-28T14:50:49.267Z,69.70
2017-11-28T14:56:19.120Z,70.20
2017-11-28T14:59:01.450Z,70.70
2017-11-28T15:01:43.766Z,70.50
2017-11-28T15:04:17.717Z,70.40
2017-11-28T15:06:50.830Z,70.30
2017-11-28T15:09:24.714Z,70.10
2017-11-28T15:11:57.810Z,70.90
2017-11-28T15:14:31.045Z,70.00
2017-11-28T15:20:02.745Z,69.30
2017-11-28T15:22:35.785Z,70.20
2017-11-28T15:28:02.587Z,70.90
2017-11-28T15:30:35.045Z,70.60
2017-11-28T15:33:02.498Z,70.40
2017-11-28T15:35:29.932Z,71.20
2017-11-28T15:37:57.370Z,71.50
2017-11-28T15:40:24.794Z,70.90
2017-11-28T15:42:52.237Z,71.30
2017-11-28T15:45:19.738Z,71.50
2017-11-28T15:47:47.177Z,71.60
2017-11-28T15:50:14.614Z,72.80
2017-11-28T15:52:42.816Z,72.40
2017-11-28T15:55:10.357Z,72.30
2017-11-28T15:57:37.776Z,72.30
2017-11-28T16:00:05.215Z,72.40
2017-11-28T16:02:32.665Z,72.60
2017-11-28T16:05:00.130Z,72.40
2017-11-28T16:07:27.554Z,72.10
2017-11-28T16:09:54.981Z,72.70
2017-11-28T16:12:22.442Z,73.30
2017-11-28T16:14:50.109Z,73.60
2017-11-28T16:17:17.551Z,73.40
2017-11-28T16:19:44.984Z,73.70
2017-11-28T16:22:12.424Z,73.30
2017-11-28T16:24:39.893Z,73.50
2017-11-28T16:27:07.358Z,72.60
2017-11-28T16:29:35.589Z,71.40
2017-11-28T16:32:03.025Z,71.40
2017-11-28T16:34:30.470Z,71.40
2017-11-28T16:36:57.921Z,71.40
2017-11-28T16:39:25.346Z,70.50
2017-11-28T16:41:52.769Z,70.70
2017-11-28T16:44:20.206Z,71.30
2017-11-28T16:46:47.657Z,70.90
2017-11-28T16:49:15.114Z,71.40
2017-11-28T16:51:42.633Z,71.00
2017-11-28T16:54:10.065Z,71.40
2017-11-28T16:56:37.497Z,71.90
2017-11-28T16:59:04.989Z,73.10
2017-11-28T17:01:32.430Z,72.10
2017-11-28T17:03:59.875Z,71.70
2017-11-28T17:06:27.320Z,72.10
2017-11-28T17:08:54.769Z,71.60
2017-11-28T17:11:22.685Z,71.50
2017-11-28T17:13:50.108Z,71.80
2017-11-28T17:16:17.544Z,71.90
2017-11-28T17:18:45.003Z,71.10
2017-11-28T17:21:12.469Z,71.50
2017-11-28T17:23:39.901Z,71.20
2017-11-28T17:26:08.355Z,70.90
2017-11-28T17:28:35.831Z,70.70
2017-11-28T17:31:03.290Z,71.30
2017-11-28T17:33:30.709Z,71.10
2017-11-28T17:35:58.158Z,70.40
2017-11-28T17:38:25.610Z,71.00
2017-11-28T17:40:53.151Z,71.00
2017-11-28T17:43:20.577Z,70.70
2017-11-28T17:45:48.018Z,70.50
2017-11-28T17:48:15.474Z,70.90
2017-11-28T17:50:43.776Z,70.50
2017-11-28T17:53:11.244Z,70.40
2017-11-28T17:55:38.684Z,70.50
2017-11-28T17:58:06.134Z,70.50
2017-11-28T18:00:33.567Z,69.80
2017-11-28T18:03:01.030Z,70.40
2017-11-28T18:05:28.454Z,70.60
2017-11-28T18:07:55.939Z,70.90
2017-11-28T18:10:23.371Z,70.20
2017-11-28T18:12:50.846Z,70.90
2017-11-28T18:15:19.025Z,71.80
2017-11-28T18:17:46.466Z,71.10
2017-11-28T18:20:13.897Z,70.20
2017-11-28T18:22:42.106Z,70.60
2017-11-28T18:25:09.530Z,70.60
2017-11-28T18:27:36.991Z,70.30
2017-11-28T18:30:04.533Z,70.20
2017-11-28T18:32:32.132Z,70.00
2017-11-28T18:34:59.632Z,70.60
2017-11-28T18:37:27.079Z,71.10
2017-11-28T18:39:54.504Z,70.70
2017-11-28T18:42:22.716Z,70.30
2017-11-28T18:44:50.152Z,70.30
2017-11-28T18:47:17.589Z,71.20
2017-11-28T18:49:45.058Z,71.10
2017-11-28T18:52:12.493Z,71.20
2017-11-28T18:54:40.037Z,70.30
2017-11-28T18:57:07.599Z,70.30
2017-11-28T18:59:35.074Z,69.60
2017-11-28T19:02:02.514Z,69.60
2017-11-28T19:04:30.756Z,69.00
2017-11-28T19:06:58.189Z,69.00
2017-11-28T19:09:25.749Z,69.40
2017-11-28T19:11:53.286Z,69.50
2017-11-28T19:14:20.830Z,69.20
2017-11-28T19:16:48.348Z,68.60
2017-11-28T19:19:15.780Z,69.40
2017-11-28T19:21:43.253Z,68.70
2017-11-28T19:24:10.682Z,68.40
2017-11-28T19:26:38.110Z,68.60
2017-11-28T19:29:05.598Z,68.80
2017-11-28T19:31:33.021Z,68.50
2017-11-28T19:34:00.456Z,68.10
2017-11-28T19:36:27.896Z,68.40
2017-11-28T19:38:55.340Z,68.20
2017-11-28T19:41:22.842Z,68.80
2017-11-28T19:43:50.365Z,68.30
2017-11-28T19:46:17.898Z,68.80
2017-11-28T19:48:45.351Z,68.60
2017-11-28T19:51:12.906Z,69.30
2017-11-28T19:53:40.434Z,68.40
2017-11-28T19:56:07.864Z,68.50
2017-11-28T19:58:35.322Z,68.60
2017-11-28T20:01:03.522Z,69.00
2017-11-28T20:03:30.956Z,69.00
2017-11-28T20:05:58.387Z,69.20
2017-11-28T20:08:26.625Z,68.90
2017-11-28T20:10:54.121Z,68.90
2017-11-28T20:13:21.561Z,69.70
2017-11-28T20:15:49.019Z,69.70
2017-11-28T20:18:16.440Z,70.10
2017-11-28T20:20:43.864Z,69.60
2017-11-28T20:23:12.090Z,69.00
2017-11-28T20:25:39.533Z,69.00
2017-11-28T20:28:06.985Z,69.40
2017-11-28T20:30:34.423Z,69.80
2017-11-28T20:33:01.854Z,70.10
2017-11-28T20:35:29.303Z,71.00
2017-11-28T20:37:56.737Z,71.20
2017-11-28T20:40:24.995Z,71.30
2017-11-28T20:42:52.534Z,71.30
2017-11-28T20:45:20.006Z,71.10
2017-11-28T20:47:47.436Z,71.00
2017-11-28T20:50:14.885Z,70.80
2017-11-28T20:52:42.311Z,70.40
2017-11-28T20:55:09.782Z,70.10
2017-11-28T20:57:37.976Z,69.70
2017-11-28T21:00:05.418Z,69.60
2017-11-28T21:02:33.154Z,70.00
2017-11-28T21:05:01.362Z,70.30
2017-11-28T21:07:28.821Z,70.40
2017-11-28T21:09:57.246Z,70.10
2017-11-28T21:12:25.449Z,69.80
2017-11-28T21:14:52.897Z,69.80
2017-11-28T21:17:20.348Z,69.80
2017-11-28T21:19:47.924Z,69.10
2017-11-28T21:22:15.373Z,68.30
2017-11-28T21:24:43.574Z,69.30
2017-11-28T21:27:11.040Z,69.30
2017-11-28T21:29:38.465Z,69.40
2017-11-28T22:54:03.793Z,75.60
2017-11-28T22:56:31.247Z,75.60
2017-11-28T22:58:58.681Z,76.80
2017-11-28T23:01:26.112Z,74.80
2017-11-28T23:06:27.550Z,75.10
2017-11-28T23:08:54.995Z,74.90
2017-11-28T23:11:22.590Z,74.70
2017-11-28T23:13:58.873Z,75.00
2017-11-28T23:16:26.315Z,74.70
2017-11-28T23:18:53.754Z,74.70
2017-11-28T23:21:21.204Z,74.20
2017-11-28T23:23:48.649Z,75.10
2017-11-28T23:26:16.108Z,74.80
2017-11-28T23:28:43.533Z,74.10
2017-11-28T23:31:11.970Z,73.40
2017-11-28T23:33:40.317Z,73.40
2017-11-28T23:36:07.769Z,73.00
2017-11-28T23:38:35.190Z,73.20
2017-11-28T23:41:02.650Z,72.30
2017-11-28T23:43:30.131Z,73.20
2017-11-28T23:45:57.567Z,72.30
2017-11-28T23:48:25.007Z,72.10
2017-11-28T23:50:52.549Z,72.80
2017-11-28T23:53:19.977Z,73.00
2017-11-28T23:55:47.421Z,72.30
2017-11-28T23:58:14.837Z,73.00
